This is the latest recevied weather packets stored in our database for station/object DB0HRC-6. If no packets are shown the sender has not sent any weather packets the latest 10 day(s).
| Time | Temp. | Humidity | Pressure | Rain* | Wind** | Luminosity | Snow |
|---|---|---|---|---|---|---|---|
| 1777113903 | 13.89° C | 56% | 1012.6 hPa | 0 mm | - | - | - |
| 1777113003 | 13.33° C | 56% | 1012.9 hPa | 0 mm | - | - | - |
| 1777112104 | 12.78° C | 59% | 1012.9 hPa | 0 mm | - | - | - |
| 1777111203 | 12.22° C | 62% | 1013 hPa | 0 mm | - | - | - |
| 1777110304 | 25° C | 100% | 46 hPa | 0 mm | - | - | - |
| 1777109426 | 11.11° C | 65% | 1005.6 hPa | 0 mm | - | - | - |
| 1777108526 | 25° C | 100% | 45 hPa | 0 mm | - | - | - |
| 1777107626 | 10° C | 70% | 1005.6 hPa | 0 mm | - | - | - |
| 1777106727 | 25° C | 100% | 45 hPa | 0 mm | - | - | - |
| 1777105826 | 25° C | 100% | 45 hPa | 0 mm | - | - | - |
| 1777104926 | 9.44° C | 72% | 1005.8 hPa | 0 mm | - | - | - |
| 1777104026 | 9.44° C | 72% | 1005.6 hPa | 0 mm | - | - | - |
| 1777103127 | 8.33° C | 76% | 1005.7 hPa | 0 mm | - | - | - |
| 1777102226 | 8.33° C | 76% | 1005.6 hPa | 0 mm | - | - | - |
| 1777101327 | 25° C | 100% | 45 hPa | 0 mm | - | - | - |
| 1777100426 | 25° C | 100% | 45 hPa | 0 mm | - | - | - |
| 1777099527 | 25° C | 100% | 45 hPa | 0 mm | - | - | - |
| 1777098626 | 6.11° C | 89% | 1005.8 hPa | 0 mm | - | - | - |
| 1777097726 | 25° C | 100% | 44 hPa | 0 mm | - | - | - |
| 1777096826 | 25° C | 100% | 44 hPa | 0 mm | - | - | - |
| 1777095926 | 25° C | 100% | 44 hPa | 0 mm | - | - | - |
| 1777095028 | 25° C | 100% | 44 hPa | 0 mm | - | - | - |
| 1777094127 | 25° C | 100% | 44 hPa | 0 mm | - | - | - |
| 1777093226 | 2.78° C | 89% | 1005.4 hPa | 0 mm | - | - | - |
| 1777092326 | 2.22° C | 89% | 1005.3 hPa | 0 mm | - | - | - |
* Rain latest hour (hover to see other rain measurements)
** Current wind speed in m/s (hover to see current wind gust speed)